sensor_id;sensor_type;location;lat;lon;timestamp;P1;durP1;ratioP1;P2;durP2;ratioP2
55758;SDS011;41678;52.126;20.664;2023-02-15T00:04:35;47.97;;;18.75;;
55758;SDS011;41678;52.126;20.664;2023-02-15T00:10:06;42.97;;;20.00;;
55758;SDS011;41678;52.126;20.664;2023-02-15T00:15:26;43.70;;;17.92;;
55758;SDS011;41678;52.126;20.664;2023-02-15T00:20:46;37.28;;;16.63;;
55758;SDS011;41678;52.126;20.664;2023-02-15T00:26:09;43.15;;;19.73;;
55758;SDS011;41678;52.126;20.664;2023-02-15T00:31:31;44.35;;;18.60;;
55758;SDS011;41678;52.126;20.664;2023-02-15T00:36:51;40.42;;;18.77;;
55758;SDS011;41678;52.126;20.664;2023-02-15T00:42:12;39.80;;;18.13;;
55758;SDS011;41678;52.126;20.664;2023-02-15T00:47:31;37.47;;;17.65;;
55758;SDS011;41678;52.126;20.664;2023-02-15T00:52:51;42.58;;;17.88;;
55758;SDS011;41678;52.126;20.664;2023-02-15T00:58:13;41.15;;;16.80;;
55758;SDS011;41678;52.126;20.664;2023-02-15T01:03:34;44.92;;;19.15;;
55758;SDS011;41678;52.126;20.664;2023-02-15T01:08:55;46.53;;;19.23;;
55758;SDS011;41678;52.126;20.664;2023-02-15T01:14:15;42.50;;;17.90;;
55758;SDS011;41678;52.126;20.664;2023-02-15T01:19:34;42.47;;;18.00;;
55758;SDS011;41678;52.126;20.664;2023-02-15T01:24:54;40.45;;;19.17;;
55758;SDS011;41678;52.126;20.664;2023-02-15T01:30:14;55.22;;;18.02;;
55758;SDS011;41678;52.126;20.664;2023-02-15T01:35:34;44.20;;;18.58;;
55758;SDS011;41678;52.126;20.664;2023-02-15T01:40:55;42.85;;;18.13;;
55758;SDS011;41678;52.126;20.664;2023-02-15T01:46:39;48.42;;;19.33;;
55758;SDS011;41678;52.126;20.664;2023-02-15T01:52:03;43.55;;;17.88;;
55758;SDS011;41678;52.126;20.664;2023-02-15T01:57:23;42.72;;;14.68;;
55758;SDS011;41678;52.126;20.664;2023-02-15T02:02:46;37.40;;;15.25;;
55758;SDS011;41678;52.126;20.664;2023-02-15T02:08:08;39.17;;;15.00;;
55758;SDS011;41678;52.126;20.664;2023-02-15T02:13:28;31.50;;;14.10;;
55758;SDS011;41678;52.126;20.664;2023-02-15T02:24:15;40.78;;;14.40;;
55758;SDS011;41678;52.126;20.664;2023-02-15T02:46:39;35.10;;;14.75;;
55758;SDS011;41678;52.126;20.664;2023-02-15T03:03:35;28.48;;;12.70;;
55758;SDS011;41678;52.126;20.664;2023-02-15T03:08:59;36.63;;;13.40;;
55758;SDS011;41678;52.126;20.664;2023-02-15T03:14:27;33.13;;;12.48;;
55758;SDS011;41678;52.126;20.664;2023-02-15T03:19:47;38.13;;;13.35;;
55758;SDS011;41678;52.126;20.664;2023-02-15T03:25:11;24.90;;;11.65;;
55758;SDS011;41678;52.126;20.664;2023-02-15T03:30:36;28.58;;;12.27;;
55758;SDS011;41678;52.126;20.664;2023-02-15T03:47:50;31.60;;;13.68;;
55758;SDS011;41678;52.126;20.664;2023-02-15T03:53:16;28.75;;;10.20;;
55758;SDS011;41678;52.126;20.664;2023-02-15T03:58:39;24.13;;;11.25;;
55758;SDS011;41678;52.126;20.664;2023-02-15T04:04:19;34.40;;;12.63;;
55758;SDS011;41678;52.126;20.664;2023-02-15T04:09:41;28.77;;;11.45;;
55758;SDS011;41678;52.126;20.664;2023-02-15T04:15:20;22.77;;;10.65;;
55758;SDS011;41678;52.126;20.664;2023-02-15T04:20:58;37.25;;;12.95;;
55758;SDS011;41678;52.126;20.664;2023-02-15T04:26:37;28.13;;;11.88;;
55758;SDS011;41678;52.126;20.664;2023-02-15T04:31:58;32.65;;;13.73;;
55758;SDS011;41678;52.126;20.664;2023-02-15T04:37:18;35.58;;;13.20;;
55758;SDS011;41678;52.126;20.664;2023-02-15T04:42:38;32.50;;;11.93;;
55758;SDS011;41678;52.126;20.664;2023-02-15T04:47:58;31.15;;;12.45;;
55758;SDS011;41678;52.126;20.664;2023-02-15T04:53:17;42.28;;;12.93;;
55758;SDS011;41678;52.126;20.664;2023-02-15T04:58:37;28.48;;;11.45;;
55758;SDS011;41678;52.126;20.664;2023-02-15T05:04:00;28.48;;;11.70;;
55758;SDS011;41678;52.126;20.664;2023-02-15T05:09:19;30.25;;;12.27;;
55758;SDS011;41678;52.126;20.664;2023-02-15T05:14:38;33.97;;;12.25;;
55758;SDS011;41678;52.126;20.664;2023-02-15T05:19:58;32.63;;;13.07;;
55758;SDS011;41678;52.126;20.664;2023-02-15T05:25:17;28.88;;;13.45;;
55758;SDS011;41678;52.126;20.664;2023-02-15T05:36:23;36.40;;;13.70;;
55758;SDS011;41678;52.126;20.664;2023-02-15T05:41:43;38.70;;;15.02;;
55758;SDS011;41678;52.126;20.664;2023-02-15T05:47:03;34.00;;;13.98;;
55758;SDS011;41678;52.126;20.664;2023-02-15T05:52:23;30.90;;;13.20;;
55758;SDS011;41678;52.126;20.664;2023-02-15T05:57:43;41.65;;;14.25;;
55758;SDS011;41678;52.126;20.664;2023-02-15T06:03:02;30.27;;;12.57;;
55758;SDS011;41678;52.126;20.664;2023-02-15T06:08:21;35.13;;;14.65;;
55758;SDS011;41678;52.126;20.664;2023-02-15T06:13:41;30.45;;;12.85;;
55758;SDS011;41678;52.126;20.664;2023-02-15T06:19:00;41.08;;;12.95;;
55758;SDS011;41678;52.126;20.664;2023-02-15T06:24:20;37.42;;;14.98;;
55758;SDS011;41678;52.126;20.664;2023-02-15T06:29:40;39.45;;;15.57;;
55758;SDS011;41678;52.126;20.664;2023-02-15T06:34:59;30.80;;;13.05;;
55758;SDS011;41678;52.126;20.664;2023-02-15T06:40:19;41.28;;;14.07;;
55758;SDS011;41678;52.126;20.664;2023-02-15T06:45:39;42.60;;;15.85;;
55758;SDS011;41678;52.126;20.664;2023-02-15T06:51:00;45.70;;;18.23;;
55758;SDS011;41678;52.126;20.664;2023-02-15T06:56:20;44.72;;;17.15;;
55758;SDS011;41678;52.126;20.664;2023-02-15T07:01:40;50.45;;;18.80;;
55758;SDS011;41678;52.126;20.664;2023-02-15T07:06:59;38.95;;;15.20;;
55758;SDS011;41678;52.126;20.664;2023-02-15T07:12:19;36.75;;;14.98;;
55758;SDS011;41678;52.126;20.664;2023-02-15T07:17:58;30.45;;;13.02;;
55758;SDS011;41678;52.126;20.664;2023-02-15T07:23:18;40.08;;;14.50;;
55758;SDS011;41678;52.126;20.664;2023-02-15T07:28:37;32.50;;;12.98;;
55758;SDS011;41678;52.126;20.664;2023-02-15T07:33:57;36.22;;;13.57;;
55758;SDS011;41678;52.126;20.664;2023-02-15T07:39:16;33.53;;;12.55;;
55758;SDS011;41678;52.126;20.664;2023-02-15T07:44:36;32.63;;;14.32;;
55758;SDS011;41678;52.126;20.664;2023-02-15T07:49:56;46.10;;;16.23;;
55758;SDS011;41678;52.126;20.664;2023-02-15T07:55:18;42.75;;;16.27;;
55758;SDS011;41678;52.126;20.664;2023-02-15T08:00:38;47.03;;;18.73;;
55758;SDS011;41678;52.126;20.664;2023-02-15T08:06:16;33.45;;;13.18;;
55758;SDS011;41678;52.126;20.664;2023-02-15T08:11:36;33.10;;;13.05;;
55758;SDS011;41678;52.126;20.664;2023-02-15T08:16:59;34.78;;;11.77;;
55758;SDS011;41678;52.126;20.664;2023-02-15T08:22:21;28.48;;;12.00;;
55758;SDS011;41678;52.126;20.664;2023-02-15T08:27:41;44.33;;;15.05;;
55758;SDS011;41678;52.126;20.664;2023-02-15T08:33:00;31.25;;;14.68;;
55758;SDS011;41678;52.126;20.664;2023-02-15T08:38:19;34.22;;;14.82;;
55758;SDS011;41678;52.126;20.664;2023-02-15T08:43:41;36.35;;;14.88;;
55758;SDS011;41678;52.126;20.664;2023-02-15T08:49:01;30.50;;;11.83;;
55758;SDS011;41678;52.126;20.664;2023-02-15T08:54:20;36.65;;;13.70;;
55758;SDS011;41678;52.126;20.664;2023-02-15T08:59:41;34.83;;;13.88;;
55758;SDS011;41678;52.126;20.664;2023-02-15T09:05:00;37.88;;;14.45;;
55758;SDS011;41678;52.126;20.664;2023-02-15T09:10:20;36.17;;;15.13;;
55758;SDS011;41678;52.126;20.664;2023-02-15T09:15:39;40.38;;;15.00;;
55758;SDS011;41678;52.126;20.664;2023-02-15T09:21:07;37.85;;;13.02;;
55758;SDS011;41678;52.126;20.664;2023-02-15T09:26:29;30.35;;;13.40;;
55758;SDS011;41678;52.126;20.664;2023-02-15T09:37:10;32.65;;;11.80;;
55758;SDS011;41678;52.126;20.664;2023-02-15T09:54:15;35.38;;;11.95;;
55758;SDS011;41678;52.126;20.664;2023-02-15T10:00:30;36.28;;;11.80;;
55758;SDS011;41678;52.126;20.664;2023-02-15T10:28:16;30.85;;;12.25;;
55758;SDS011;41678;52.126;20.664;2023-02-15T10:39:06;40.97;;;14.82;;
55758;SDS011;41678;52.126;20.664;2023-02-15T11:06:57;38.97;;;16.52;;
55758;SDS011;41678;52.126;20.664;2023-02-15T11:12:24;46.80;;;14.65;;
55758;SDS011;41678;52.126;20.664;2023-02-15T11:17:52;42.10;;;14.40;;
55758;SDS011;41678;52.126;20.664;2023-02-15T11:23:17;48.83;;;16.45;;
55758;SDS011;41678;52.126;20.664;2023-02-15T11:28:39;44.85;;;14.82;;
55758;SDS011;41678;52.126;20.664;2023-02-15T11:34:05;41.47;;;15.25;;
55758;SDS011;41678;52.126;20.664;2023-02-15T11:39:33;40.85;;;15.52;;
55758;SDS011;41678;52.126;20.664;2023-02-15T11:50:42;49.63;;;17.52;;
55758;SDS011;41678;52.126;20.664;2023-02-15T11:56:03;44.05;;;16.23;;
55758;SDS011;41678;52.126;20.664;2023-02-15T12:12:40;34.47;;;13.00;;
55758;SDS011;41678;52.126;20.664;2023-02-15T12:18:00;41.83;;;13.23;;
55758;SDS011;41678;52.126;20.664;2023-02-15T12:23:19;40.33;;;14.38;;
55758;SDS011;41678;52.126;20.664;2023-02-15T12:28:41;38.33;;;14.30;;
55758;SDS011;41678;52.126;20.664;2023-02-15T12:34:08;33.22;;;15.48;;
55758;SDS011;41678;52.126;20.664;2023-02-15T12:39:31;40.30;;;15.02;;
55758;SDS011;41678;52.126;20.664;2023-02-15T12:50:23;39.78;;;16.13;;
55758;SDS011;41678;52.126;20.664;2023-02-15T12:56:21;42.22;;;14.27;;
55758;SDS011;41678;52.126;20.664;2023-02-15T13:01:32;41.97;;;16.17;;
55758;SDS011;41678;52.126;20.664;2023-02-15T13:06:57;42.88;;;16.42;;
55758;SDS011;41678;52.126;20.664;2023-02-15T13:12:24;52.53;;;17.23;;
55758;SDS011;41678;52.126;20.664;2023-02-15T13:17:49;45.60;;;18.70;;
55758;SDS011;41678;52.126;20.664;2023-02-15T13:23:13;50.08;;;18.25;;
55758;SDS011;41678;52.126;20.664;2023-02-15T13:28:48;51.70;;;18.10;;
55758;SDS011;41678;52.126;20.664;2023-02-15T13:34:12;46.70;;;17.40;;
55758;SDS011;41678;52.126;20.664;2023-02-15T14:07:53;49.53;;;19.45;;
55758;SDS011;41678;52.126;20.664;2023-02-15T14:19:02;45.50;;;17.35;;
55758;SDS011;41678;52.126;20.664;2023-02-15T14:24:37;52.88;;;21.38;;
55758;SDS011;41678;52.126;20.664;2023-02-15T14:30:46;50.00;;;20.17;;
55758;SDS011;41678;52.126;20.664;2023-02-15T14:35:50;50.10;;;18.88;;
55758;SDS011;41678;52.126;20.664;2023-02-15T14:41:12;48.92;;;19.65;;
55758;SDS011;41678;52.126;20.664;2023-02-15T14:52:05;47.60;;;17.75;;
55758;SDS011;41678;52.126;20.664;2023-02-15T14:57:26;42.85;;;15.88;;
55758;SDS011;41678;52.126;20.664;2023-02-15T15:02:50;45.72;;;15.55;;
55758;SDS011;41678;52.126;20.664;2023-02-15T15:08:21;38.42;;;15.43;;
55758;SDS011;41678;52.126;20.664;2023-02-15T15:13:53;34.05;;;13.82;;
55758;SDS011;41678;52.126;20.664;2023-02-15T15:19:56;32.83;;;12.57;;
55758;SDS011;41678;52.126;20.664;2023-02-15T15:25:04;46.83;;;14.93;;
55758;SDS011;41678;52.126;20.664;2023-02-15T15:52:59;43.65;;;15.40;;
55758;SDS011;41678;52.126;20.664;2023-02-15T15:58:21;36.10;;;14.18;;
55758;SDS011;41678;52.126;20.664;2023-02-15T16:03:53;46.28;;;16.92;;
55758;SDS011;41678;52.126;20.664;2023-02-15T16:09:21;46.63;;;16.63;;
55758;SDS011;41678;52.126;20.664;2023-02-15T16:14:43;39.53;;;13.45;;
55758;SDS011;41678;52.126;20.664;2023-02-15T16:20:14;23.38;;;10.52;;
55758;SDS011;41678;52.126;20.664;2023-02-15T16:31:13;35.78;;;12.85;;
55758;SDS011;41678;52.126;20.664;2023-02-15T16:36:34;34.85;;;11.90;;
55758;SDS011;41678;52.126;20.664;2023-02-15T16:41:54;30.77;;;11.63;;
55758;SDS011;41678;52.126;20.664;2023-02-15T16:47:24;32.05;;;13.98;;
55758;SDS011;41678;52.126;20.664;2023-02-15T16:52:46;38.75;;;15.05;;
55758;SDS011;41678;52.126;20.664;2023-02-15T16:58:25;31.77;;;15.02;;
55758;SDS011;41678;52.126;20.664;2023-02-15T17:03:48;35.30;;;14.05;;
55758;SDS011;41678;52.126;20.664;2023-02-15T17:09:16;41.65;;;14.52;;
55758;SDS011;41678;52.126;20.664;2023-02-15T17:14:41;40.08;;;16.92;;
55758;SDS011;41678;52.126;20.664;2023-02-15T17:20:01;35.75;;;14.48;;
55758;SDS011;41678;52.126;20.664;2023-02-15T17:25:23;33.40;;;13.48;;
55758;SDS011;41678;52.126;20.664;2023-02-15T17:30:49;30.65;;;13.55;;
55758;SDS011;41678;52.126;20.664;2023-02-15T17:36:16;32.58;;;12.85;;
55758;SDS011;41678;52.126;20.664;2023-02-15T17:41:42;33.17;;;13.48;;
55758;SDS011;41678;52.126;20.664;2023-02-15T17:47:03;32.65;;;13.38;;
55758;SDS011;41678;52.126;20.664;2023-02-15T17:52:22;34.83;;;14.93;;
55758;SDS011;41678;52.126;20.664;2023-02-15T17:57:46;42.38;;;17.73;;
55758;SDS011;41678;52.126;20.664;2023-02-15T18:09:20;44.85;;;16.80;;
55758;SDS011;41678;52.126;20.664;2023-02-15T18:14:59;49.85;;;18.40;;
55758;SDS011;41678;52.126;20.664;2023-02-15T18:20:21;49.58;;;19.48;;
55758;SDS011;41678;52.126;20.664;2023-02-15T18:25:51;47.20;;;18.80;;
55758;SDS011;41678;52.126;20.664;2023-02-15T18:31:11;20.25;;;7.85;;
55758;SDS011;41678;52.126;20.664;2023-02-15T18:36:32;38.08;;;15.25;;
55758;SDS011;41678;52.126;20.664;2023-02-15T18:41:55;44.30;;;16.95;;
55758;SDS011;41678;52.126;20.664;2023-02-15T18:47:15;43.05;;;18.05;;
55758;SDS011;41678;52.126;20.664;2023-02-15T18:52:35;32.22;;;14.25;;
55758;SDS011;41678;52.126;20.664;2023-02-15T18:57:56;36.83;;;14.88;;
55758;SDS011;41678;52.126;20.664;2023-02-15T19:03:17;43.78;;;16.30;;
55758;SDS011;41678;52.126;20.664;2023-02-15T19:08:37;39.08;;;17.40;;
55758;SDS011;41678;52.126;20.664;2023-02-15T19:13:57;42.85;;;17.60;;
55758;SDS011;41678;52.126;20.664;2023-02-15T19:19:17;51.50;;;18.75;;
55758;SDS011;41678;52.126;20.664;2023-02-15T19:24:37;47.75;;;16.52;;
55758;SDS011;41678;52.126;20.664;2023-02-15T19:29:59;50.30;;;18.38;;
55758;SDS011;41678;52.126;20.664;2023-02-15T19:35:22;40.92;;;17.90;;
55758;SDS011;41678;52.126;20.664;2023-02-15T19:40:45;51.63;;;18.15;;
55758;SDS011;41678;52.126;20.664;2023-02-15T19:46:05;52.58;;;17.75;;
55758;SDS011;41678;52.126;20.664;2023-02-15T19:51:25;52.33;;;19.63;;
55758;SDS011;41678;52.126;20.664;2023-02-15T19:56:58;51.25;;;19.23;;
55758;SDS011;41678;52.126;20.664;2023-02-15T20:02:18;45.25;;;17.33;;
55758;SDS011;41678;52.126;20.664;2023-02-15T20:07:53;59.53;;;19.88;;
55758;SDS011;41678;52.126;20.664;2023-02-15T20:13:14;86.13;;;26.85;;
55758;SDS011;41678;52.126;20.664;2023-02-15T20:18:35;100.15;;;27.75;;
55758;SDS011;41678;52.126;20.664;2023-02-15T20:23:54;75.88;;;23.90;;
55758;SDS011;41678;52.126;20.664;2023-02-15T20:29:14;73.32;;;24.55;;
55758;SDS011;41678;52.126;20.664;2023-02-15T20:34:36;59.88;;;22.45;;
55758;SDS011;41678;52.126;20.664;2023-02-15T20:39:56;68.68;;;25.73;;
55758;SDS011;41678;52.126;20.664;2023-02-15T20:45:17;63.65;;;23.15;;
55758;SDS011;41678;52.126;20.664;2023-02-15T20:50:44;61.15;;;24.50;;
55758;SDS011;41678;52.126;20.664;2023-02-15T20:56:03;70.00;;;26.05;;
55758;SDS011;41678;52.126;20.664;2023-02-15T21:01:23;70.53;;;23.77;;
55758;SDS011;41678;52.126;20.664;2023-02-15T21:06:43;63.03;;;23.75;;
55758;SDS011;41678;52.126;20.664;2023-02-15T21:12:02;60.67;;;23.20;;
55758;SDS011;41678;52.126;20.664;2023-02-15T21:17:22;76.50;;;25.38;;
55758;SDS011;41678;52.126;20.664;2023-02-15T21:22:41;58.58;;;23.15;;
55758;SDS011;41678;52.126;20.664;2023-02-15T21:28:01;70.53;;;25.40;;
55758;SDS011;41678;52.126;20.664;2023-02-15T21:33:22;71.97;;;26.02;;
55758;SDS011;41678;52.126;20.664;2023-02-15T21:38:42;79.90;;;30.85;;
55758;SDS011;41678;52.126;20.664;2023-02-15T21:44:10;82.93;;;32.63;;
55758;SDS011;41678;52.126;20.664;2023-02-15T21:49:53;77.53;;;30.92;;
55758;SDS011;41678;52.126;20.664;2023-02-15T21:55:13;82.32;;;31.08;;
55758;SDS011;41678;52.126;20.664;2023-02-15T22:00:33;81.47;;;29.25;;
55758;SDS011;41678;52.126;20.664;2023-02-15T22:05:53;82.57;;;32.75;;
55758;SDS011;41678;52.126;20.664;2023-02-15T22:11:15;83.35;;;30.02;;
55758;SDS011;41678;52.126;20.664;2023-02-15T22:16:36;96.10;;;33.40;;
55758;SDS011;41678;52.126;20.664;2023-02-15T22:21:56;75.72;;;29.33;;
55758;SDS011;41678;52.126;20.664;2023-02-15T22:27:19;76.30;;;29.65;;
55758;SDS011;41678;52.126;20.664;2023-02-15T22:32:43;97.35;;;29.08;;
55758;SDS011;41678;52.126;20.664;2023-02-15T22:38:03;80.93;;;28.58;;
55758;SDS011;41678;52.126;20.664;2023-02-15T22:43:41;72.40;;;26.85;;
55758;SDS011;41678;52.126;20.664;2023-02-15T22:49:03;72.93;;;27.58;;
55758;SDS011;41678;52.126;20.664;2023-02-15T22:54:22;73.05;;;29.85;;
55758;SDS011;41678;52.126;20.664;2023-02-15T22:59:41;68.68;;;24.15;;
55758;SDS011;41678;52.126;20.664;2023-02-15T23:05:01;80.78;;;28.92;;
55758;SDS011;41678;52.126;20.664;2023-02-15T23:10:22;83.32;;;28.13;;
55758;SDS011;41678;52.126;20.664;2023-02-15T23:15:44;64.55;;;22.65;;
55758;SDS011;41678;52.126;20.664;2023-02-15T23:26:40;66.50;;;25.83;;
55758;SDS011;41678;52.126;20.664;2023-02-15T23:31:59;59.85;;;21.73;;
55758;SDS011;41678;52.126;20.664;2023-02-15T23:37:19;59.97;;;22.50;;
55758;SDS011;41678;52.126;20.664;2023-02-15T23:42:38;52.78;;;22.60;;
55758;SDS011;41678;52.126;20.664;2023-02-15T23:47:58;67.35;;;24.13;;
55758;SDS011;41678;52.126;20.664;2023-02-15T23:53:36;63.72;;;24.42;;
55758;SDS011;41678;52.126;20.664;2023-02-15T23:58:56;61.72;;;26.25;;
